sensor_id;sensor_type;location;lat;lon;timestamp;temperature;humidity
69895;DHT22;57172;52.034;5.090;2023-05-10T00:00:57;13.80;99.20
69895;DHT22;57172;52.034;5.090;2023-05-10T00:03:24;13.80;99.30
69895;DHT22;57172;52.034;5.090;2023-05-10T00:05:51;13.80;99.20
69895;DHT22;57172;52.034;5.090;2023-05-10T00:08:18;13.80;99.10
69895;DHT22;57172;52.034;5.090;2023-05-10T00:10:45;13.80;99.10
69895;DHT22;57172;52.034;5.090;2023-05-10T00:13:12;13.70;99.20
69895;DHT22;57172;52.034;5.090;2023-05-10T00:15:39;13.80;99.60
69895;DHT22;57172;52.034;5.090;2023-05-10T00:18:06;13.70;99.80
69895;DHT22;57172;52.034;5.090;2023-05-10T00:20:33;13.80;99.90
69895;DHT22;57172;52.034;5.090;2023-05-10T00:23:00;13.70;99.90
69895;DHT22;57172;52.034;5.090;2023-05-10T00:25:27;13.70;99.80
69895;DHT22;57172;52.034;5.090;2023-05-10T00:27:54;13.70;99.60
69895;DHT22;57172;52.034;5.090;2023-05-10T00:30:24;13.70;99.70
69895;DHT22;57172;52.034;5.090;2023-05-10T00:32:51;13.70;99.50
69895;DHT22;57172;52.034;5.090;2023-05-10T00:35:18;13.60;99.30
69895;DHT22;57172;52.034;5.090;2023-05-10T00:37:45;13.60;99.20
69895;DHT22;57172;52.034;5.090;2023-05-10T00:40:12;13.50;99.20
69895;DHT22;57172;52.034;5.090;2023-05-10T00:42:42;13.50;99.00
69895;DHT22;57172;52.034;5.090;2023-05-10T00:45:09;13.50;99.00
69895;DHT22;57172;52.034;5.090;2023-05-10T00:47:38;13.50;98.80
69895;DHT22;57172;52.034;5.090;2023-05-10T00:50:05;13.40;98.90
69895;DHT22;57172;52.034;5.090;2023-05-10T00:52:32;13.40;99.00
69895;DHT22;57172;52.034;5.090;2023-05-10T00:55:00;13.40;99.10
69895;DHT22;57172;52.034;5.090;2023-05-10T00:57:27;13.40;99.30
69895;DHT22;57172;52.034;5.090;2023-05-10T00:59:54;13.40;99.40
69895;DHT22;57172;52.034;5.090;2023-05-10T01:02:21;13.40;99.30
69895;DHT22;57172;52.034;5.090;2023-05-10T01:04:49;13.30;99.30
69895;DHT22;57172;52.034;5.090;2023-05-10T01:07:16;13.30;99.40
69895;DHT22;57172;52.034;5.090;2023-05-10T01:09:43;13.30;99.30
69895;DHT22;57172;52.034;5.090;2023-05-10T01:12:11;13.20;99.30
69895;DHT22;57172;52.034;5.090;2023-05-10T01:14:38;13.30;99.50
69895;DHT22;57172;52.034;5.090;2023-05-10T01:17:06;13.30;99.50
69895;DHT22;57172;52.034;5.090;2023-05-10T01:19:34;13.20;99.60
69895;DHT22;57172;52.034;5.090;2023-05-10T01:31:17;13.20;99.90
69895;DHT22;57172;52.034;5.090;2023-05-10T01:34:07;13.20;99.90
69895;DHT22;57172;52.034;5.090;2023-05-10T01:37:02;13.10;99.30
69895;DHT22;57172;52.034;5.090;2023-05-10T01:39:39;13.10;99.50
69895;DHT22;57172;52.034;5.090;2023-05-10T01:42:10;13.00;99.90
69895;DHT22;57172;52.034;5.090;2023-05-10T01:44:44;13.10;99.90
69895;DHT22;57172;52.034;5.090;2023-05-10T01:47:23;13.10;99.90
69895;DHT22;57172;52.034;5.090;2023-05-10T01:49:55;13.00;99.80
69895;DHT22;57172;52.034;5.090;2023-05-10T01:52:28;13.00;99.70
69895;DHT22;57172;52.034;5.090;2023-05-10T01:55:02;13.00;99.80
69895;DHT22;57172;52.034;5.090;2023-05-10T01:57:39;12.90;99.70
69895;DHT22;57172;52.034;5.090;2023-05-10T02:00:07;12.90;99.90
69895;DHT22;57172;52.034;5.090;2023-05-10T02:02:46;12.90;99.90
69895;DHT22;57172;52.034;5.090;2023-05-10T02:05:15;12.90;99.90
69895;DHT22;57172;52.034;5.090;2023-05-10T02:07:43;12.90;99.90
69895;DHT22;57172;52.034;5.090;2023-05-10T02:10:11;12.90;99.90
69895;DHT22;57172;52.034;5.090;2023-05-10T02:12:45;12.90;99.90
69895;DHT22;57172;52.034;5.090;2023-05-10T02:15:18;13.00;99.90
69895;DHT22;57172;52.034;5.090;2023-05-10T02:17:46;13.00;99.90
69895;DHT22;57172;52.034;5.090;2023-05-10T02:20:16;13.00;99.90
69895;DHT22;57172;52.034;5.090;2023-05-10T02:22:45;13.00;99.90
69895;DHT22;57172;52.034;5.090;2023-05-10T02:25:14;13.00;99.90
69895;DHT22;57172;52.034;5.090;2023-05-10T02:27:43;13.00;99.90
69895;DHT22;57172;52.034;5.090;2023-05-10T02:30:11;13.00;99.90
69895;DHT22;57172;52.034;5.090;2023-05-10T02:32:39;13.00;99.90
69895;DHT22;57172;52.034;5.090;2023-05-10T02:35:07;13.00;99.90
69895;DHT22;57172;52.034;5.090;2023-05-10T02:37:37;13.00;99.90
69895;DHT22;57172;52.034;5.090;2023-05-10T02:40:05;13.00;99.90
69895;DHT22;57172;52.034;5.090;2023-05-10T02:42:36;13.10;99.90
69895;DHT22;57172;52.034;5.090;2023-05-10T02:45:10;13.10;99.90
69895;DHT22;57172;52.034;5.090;2023-05-10T02:47:40;13.10;99.90
69895;DHT22;57172;52.034;5.090;2023-05-10T02:50:08;13.10;99.90
69895;DHT22;57172;52.034;5.090;2023-05-10T02:52:46;13.10;99.90
69895;DHT22;57172;52.034;5.090;2023-05-10T02:55:16;13.10;99.90
69895;DHT22;57172;52.034;5.090;2023-05-10T02:57:58;13.10;99.90
69895;DHT22;57172;52.034;5.090;2023-05-10T03:00:26;13.20;99.90
69895;DHT22;57172;52.034;5.090;2023-05-10T03:02:53;13.20;99.90
69895;DHT22;57172;52.034;5.090;2023-05-10T03:05:20;13.20;99.90
69895;DHT22;57172;52.034;5.090;2023-05-10T03:07:48;13.20;99.90
69895;DHT22;57172;52.034;5.090;2023-05-10T03:10:15;13.20;99.90
69895;DHT22;57172;52.034;5.090;2023-05-10T03:13:19;13.20;99.90
69895;DHT22;57172;52.034;5.090;2023-05-10T03:15:59;13.20;99.90
69895;DHT22;57172;52.034;5.090;2023-05-10T03:18:41;13.20;99.90
69895;DHT22;57172;52.034;5.090;2023-05-10T03:21:11;13.20;99.90
69895;DHT22;57172;52.034;5.090;2023-05-10T03:24:13;13.20;99.90
69895;DHT22;57172;52.034;5.090;2023-05-10T03:26:44;13.10;99.90
69895;DHT22;57172;52.034;5.090;2023-05-10T03:29:16;13.10;99.90
69895;DHT22;57172;52.034;5.090;2023-05-10T03:31:44;13.10;99.90
69895;DHT22;57172;52.034;5.090;2023-05-10T03:34:11;13.20;99.90
69895;DHT22;57172;52.034;5.090;2023-05-10T03:36:38;13.20;99.90
69895;DHT22;57172;52.034;5.090;2023-05-10T03:39:04;13.20;99.90
69895;DHT22;57172;52.034;5.090;2023-05-10T03:41:32;13.20;99.90
69895;DHT22;57172;52.034;5.090;2023-05-10T03:43:59;13.20;99.90
69895;DHT22;57172;52.034;5.090;2023-05-10T03:46:27;13.20;99.90
69895;DHT22;57172;52.034;5.090;2023-05-10T03:48:54;13.20;99.90
69895;DHT22;57172;52.034;5.090;2023-05-10T03:51:21;13.20;99.90
69895;DHT22;57172;52.034;5.090;2023-05-10T03:53:48;13.20;99.90
69895;DHT22;57172;52.034;5.090;2023-05-10T03:56:16;13.20;99.90
69895;DHT22;57172;52.034;5.090;2023-05-10T03:58:44;13.20;99.90
69895;DHT22;57172;52.034;5.090;2023-05-10T04:01:12;13.30;99.90
69895;DHT22;57172;52.034;5.090;2023-05-10T04:03:39;13.30;99.90
69895;DHT22;57172;52.034;5.090;2023-05-10T04:06:06;13.30;99.90
69895;DHT22;57172;52.034;5.090;2023-05-10T04:08:35;13.40;99.90
69895;DHT22;57172;52.034;5.090;2023-05-10T04:11:11;13.40;99.90
69895;DHT22;57172;52.034;5.090;2023-05-10T04:13:39;13.40;99.90
69895;DHT22;57172;52.034;5.090;2023-05-10T04:16:06;13.40;99.90
69895;DHT22;57172;52.034;5.090;2023-05-10T04:18:33;13.40;99.90
69895;DHT22;57172;52.034;5.090;2023-05-10T04:20:59;13.40;99.90
69895;DHT22;57172;52.034;5.090;2023-05-10T04:23:27;13.40;99.90
69895;DHT22;57172;52.034;5.090;2023-05-10T04:26:00;13.40;99.90
69895;DHT22;57172;52.034;5.090;2023-05-10T04:28:27;13.40;99.90
69895;DHT22;57172;52.034;5.090;2023-05-10T04:31:03;13.50;99.90
69895;DHT22;57172;52.034;5.090;2023-05-10T04:33:31;13.50;99.90
69895;DHT22;57172;52.034;5.090;2023-05-10T04:35:59;13.50;99.90
69895;DHT22;57172;52.034;5.090;2023-05-10T04:38:28;13.50;99.90
69895;DHT22;57172;52.034;5.090;2023-05-10T04:41:07;13.50;99.90
69895;DHT22;57172;52.034;5.090;2023-05-10T04:43:35;13.50;99.90
69895;DHT22;57172;52.034;5.090;2023-05-10T04:46:02;13.50;99.90
69895;DHT22;57172;52.034;5.090;2023-05-10T04:48:29;13.50;99.90
69895;DHT22;57172;52.034;5.090;2023-05-10T04:50:56;13.50;99.90
69895;DHT22;57172;52.034;5.090;2023-05-10T04:53:23;13.50;99.90
69895;DHT22;57172;52.034;5.090;2023-05-10T04:55:50;13.60;99.90
69895;DHT22;57172;52.034;5.090;2023-05-10T04:58:16;13.60;99.90
69895;DHT22;57172;52.034;5.090;2023-05-10T05:00:43;13.60;99.90
69895;DHT22;57172;52.034;5.090;2023-05-10T05:03:10;13.60;99.90
69895;DHT22;57172;52.034;5.090;2023-05-10T05:05:38;13.60;99.90
69895;DHT22;57172;52.034;5.090;2023-05-10T05:08:05;13.60;99.90
69895;DHT22;57172;52.034;5.090;2023-05-10T05:10:32;13.60;99.90
69895;DHT22;57172;52.034;5.090;2023-05-10T05:12:59;13.60;99.90
69895;DHT22;57172;52.034;5.090;2023-05-10T05:15:27;13.60;99.90
69895;DHT22;57172;52.034;5.090;2023-05-10T05:17:54;13.60;99.90
69895;DHT22;57172;52.034;5.090;2023-05-10T05:20:21;13.60;99.90
69895;DHT22;57172;52.034;5.090;2023-05-10T05:22:47;13.60;99.90
69895;DHT22;57172;52.034;5.090;2023-05-10T05:25:14;13.60;99.90
69895;DHT22;57172;52.034;5.090;2023-05-10T05:27:42;13.60;99.90
69895;DHT22;57172;52.034;5.090;2023-05-10T05:30:09;13.60;99.90
69895;DHT22;57172;52.034;5.090;2023-05-10T05:32:36;13.70;99.90
69895;DHT22;57172;52.034;5.090;2023-05-10T05:35:04;13.70;99.90
69895;DHT22;57172;52.034;5.090;2023-05-10T05:37:31;13.70;99.90
69895;DHT22;57172;52.034;5.090;2023-05-10T05:39:58;13.70;99.90
69895;DHT22;57172;52.034;5.090;2023-05-10T05:42:25;13.70;99.90
69895;DHT22;57172;52.034;5.090;2023-05-10T05:44:52;13.70;99.90
69895;DHT22;57172;52.034;5.090;2023-05-10T05:47:19;13.70;99.90
69895;DHT22;57172;52.034;5.090;2023-05-10T05:49:46;13.60;99.90
69895;DHT22;57172;52.034;5.090;2023-05-10T05:52:13;13.70;99.90
69895;DHT22;57172;52.034;5.090;2023-05-10T05:54:40;13.70;99.90
69895;DHT22;57172;52.034;5.090;2023-05-10T05:57:07;13.70;99.90
69895;DHT22;57172;52.034;5.090;2023-05-10T05:59:34;13.70;99.90
69895;DHT22;57172;52.034;5.090;2023-05-10T06:02:01;13.70;99.90
69895;DHT22;57172;52.034;5.090;2023-05-10T06:04:28;13.70;99.90
69895;DHT22;57172;52.034;5.090;2023-05-10T06:06:55;13.80;99.90
69895;DHT22;57172;52.034;5.090;2023-05-10T06:09:22;13.80;99.90
69895;DHT22;57172;52.034;5.090;2023-05-10T06:11:51;13.80;99.90
69895;DHT22;57172;52.034;5.090;2023-05-10T06:14:20;13.80;99.90
69895;DHT22;57172;52.034;5.090;2023-05-10T06:16:47;13.80;99.90
69895;DHT22;57172;52.034;5.090;2023-05-10T06:19:28;13.80;99.90
69895;DHT22;57172;52.034;5.090;2023-05-10T06:21:57;13.90;99.90
69895;DHT22;57172;52.034;5.090;2023-05-10T06:24:24;14.00;99.90
69895;DHT22;57172;52.034;5.090;2023-05-10T06:26:51;14.10;99.90
69895;DHT22;57172;52.034;5.090;2023-05-10T06:29:17;14.10;99.90
69895;DHT22;57172;52.034;5.090;2023-05-10T06:31:44;14.10;99.90
69895;DHT22;57172;52.034;5.090;2023-05-10T06:34:11;14.20;99.90
69895;DHT22;57172;52.034;5.090;2023-05-10T06:36:39;14.30;99.90
69895;DHT22;57172;52.034;5.090;2023-05-10T06:39:08;14.40;99.90
69895;DHT22;57172;52.034;5.090;2023-05-10T06:41:36;14.40;99.90
69895;DHT22;57172;52.034;5.090;2023-05-10T06:44:04;14.60;99.90
69895;DHT22;57172;52.034;5.090;2023-05-10T06:46:31;14.70;99.90
69895;DHT22;57172;52.034;5.090;2023-05-10T06:48:58;14.80;99.90
69895;DHT22;57172;52.034;5.090;2023-05-10T06:51:25;14.90;99.90
69895;DHT22;57172;52.034;5.090;2023-05-10T06:53:52;14.80;99.90
69895;DHT22;57172;52.034;5.090;2023-05-10T06:56:19;14.80;99.90
69895;DHT22;57172;52.034;5.090;2023-05-10T06:58:48;14.80;99.90
69895;DHT22;57172;52.034;5.090;2023-05-10T07:01:15;14.80;99.90
69895;DHT22;57172;52.034;5.090;2023-05-10T07:03:42;15.00;99.90
69895;DHT22;57172;52.034;5.090;2023-05-10T07:06:09;15.10;99.90
69895;DHT22;57172;52.034;5.090;2023-05-10T07:08:55;15.00;99.90
69895;DHT22;57172;52.034;5.090;2023-05-10T07:11:22;15.20;99.90
69895;DHT22;57172;52.034;5.090;2023-05-10T07:13:49;15.40;99.90
69895;DHT22;57172;52.034;5.090;2023-05-10T07:16:16;15.40;99.90
69895;DHT22;57172;52.034;5.090;2023-05-10T07:18:43;15.30;99.90
69895;DHT22;57172;52.034;5.090;2023-05-10T07:21:10;15.20;99.90
69895;DHT22;57172;52.034;5.090;2023-05-10T07:23:37;15.00;99.20
69895;DHT22;57172;52.034;5.090;2023-05-10T07:26:04;14.90;99.00
69895;DHT22;57172;52.034;5.090;2023-05-10T07:28:32;14.90;99.90
69895;DHT22;57172;52.034;5.090;2023-05-10T07:30:58;14.90;99.90
69895;DHT22;57172;52.034;5.090;2023-05-10T07:33:25;15.00;99.90
69895;DHT22;57172;52.034;5.090;2023-05-10T07:35:52;15.00;99.90
69895;DHT22;57172;52.034;5.090;2023-05-10T07:38:19;15.00;99.90
69895;DHT22;57172;52.034;5.090;2023-05-10T07:40:46;15.10;99.90
69895;DHT22;57172;52.034;5.090;2023-05-10T07:43:13;15.20;99.90
69895;DHT22;57172;52.034;5.090;2023-05-10T07:45:40;15.30;99.90
69895;DHT22;57172;52.034;5.090;2023-05-10T07:48:07;15.30;99.90
69895;DHT22;57172;52.034;5.090;2023-05-10T07:50:34;15.30;99.90
69895;DHT22;57172;52.034;5.090;2023-05-10T07:53:00;15.30;99.90
69895;DHT22;57172;52.034;5.090;2023-05-10T07:55:27;15.30;99.90
69895;DHT22;57172;52.034;5.090;2023-05-10T07:57:55;15.20;99.90
69895;DHT22;57172;52.034;5.090;2023-05-10T08:00:22;15.30;99.90
69895;DHT22;57172;52.034;5.090;2023-05-10T08:02:48;15.50;99.90
69895;DHT22;57172;52.034;5.090;2023-05-10T08:05:16;15.50;99.90
69895;DHT22;57172;52.034;5.090;2023-05-10T08:07:43;15.60;99.90
69895;DHT22;57172;52.034;5.090;2023-05-10T08:10:10;15.70;99.90
69895;DHT22;57172;52.034;5.090;2023-05-10T08:12:40;15.90;99.90
69895;DHT22;57172;52.034;5.090;2023-05-10T08:15:07;16.00;99.90
69895;DHT22;57172;52.034;5.090;2023-05-10T08:17:34;16.10;99.90
69895;DHT22;57172;52.034;5.090;2023-05-10T08:20:01;16.20;99.90
69895;DHT22;57172;52.034;5.090;2023-05-10T08:22:28;16.00;99.90
69895;DHT22;57172;52.034;5.090;2023-05-10T08:24:55;15.90;99.70
69895;DHT22;57172;52.034;5.090;2023-05-10T08:27:22;15.90;99.90
69895;DHT22;57172;52.034;5.090;2023-05-10T08:29:49;15.80;99.90
69895;DHT22;57172;52.034;5.090;2023-05-10T08:32:17;15.80;99.80
69895;DHT22;57172;52.034;5.090;2023-05-10T08:34:44;15.80;99.90
69895;DHT22;57172;52.034;5.090;2023-05-10T08:37:11;15.80;99.90
69895;DHT22;57172;52.034;5.090;2023-05-10T08:39:40;15.70;99.60
69895;DHT22;57172;52.034;5.090;2023-05-10T08:42:07;15.60;99.90
69895;DHT22;57172;52.034;5.090;2023-05-10T08:44:36;15.60;99.90
69895;DHT22;57172;52.034;5.090;2023-05-10T08:47:05;15.60;99.40
69895;DHT22;57172;52.034;5.090;2023-05-10T08:49:33;15.60;99.90
69895;DHT22;57172;52.034;5.090;2023-05-10T08:52:05;15.60;99.90
69895;DHT22;57172;52.034;5.090;2023-05-10T08:54:34;15.70;99.90
69895;DHT22;57172;52.034;5.090;2023-05-10T08:57:01;15.80;99.90
69895;DHT22;57172;52.034;5.090;2023-05-10T08:59:28;15.80;99.90
69895;DHT22;57172;52.034;5.090;2023-05-10T09:01:58;15.80;99.90
69895;DHT22;57172;52.034;5.090;2023-05-10T09:04:26;15.80;99.90
69895;DHT22;57172;52.034;5.090;2023-05-10T09:06:57;15.80;99.90
69895;DHT22;57172;52.034;5.090;2023-05-10T09:09:25;15.80;99.90
69895;DHT22;57172;52.034;5.090;2023-05-10T09:11:53;15.90;99.90
69895;DHT22;57172;52.034;5.090;2023-05-10T09:14:20;15.90;99.90
69895;DHT22;57172;52.034;5.090;2023-05-10T09:16:47;15.90;99.90
69895;DHT22;57172;52.034;5.090;2023-05-10T09:19:14;16.10;99.90
69895;DHT22;57172;52.034;5.090;2023-05-10T09:21:41;16.30;99.90
69895;DHT22;57172;52.034;5.090;2023-05-10T09:24:09;16.50;99.90
69895;DHT22;57172;52.034;5.090;2023-05-10T09:26:46;16.70;99.90
69895;DHT22;57172;52.034;5.090;2023-05-10T09:29:14;16.70;99.90
69895;DHT22;57172;52.034;5.090;2023-05-10T09:31:48;16.70;99.90
69895;DHT22;57172;52.034;5.090;2023-05-10T09:34:19;16.70;99.90
69895;DHT22;57172;52.034;5.090;2023-05-10T09:36:53;16.80;99.90
69895;DHT22;57172;52.034;5.090;2023-05-10T09:39:20;16.70;99.60
69895;DHT22;57172;52.034;5.090;2023-05-10T09:41:57;16.70;99.40
69895;DHT22;57172;52.034;5.090;2023-05-10T09:44:25;16.70;99.90
69895;DHT22;57172;52.034;5.090;2023-05-10T09:46:52;16.60;98.70
69895;DHT22;57172;52.034;5.090;2023-05-10T09:49:21;16.50;98.60
69895;DHT22;57172;52.034;5.090;2023-05-10T09:52:00;16.50;98.30
69895;DHT22;57172;52.034;5.090;2023-05-10T09:54:27;16.30;97.10
69895;DHT22;57172;52.034;5.090;2023-05-10T09:56:54;16.20;98.50
69895;DHT22;57172;52.034;5.090;2023-05-10T09:59:21;16.30;99.90
69895;DHT22;57172;52.034;5.090;2023-05-10T10:01:52;16.30;99.80
69895;DHT22;57172;52.034;5.090;2023-05-10T10:04:20;16.30;99.90
69895;DHT22;57172;52.034;5.090;2023-05-10T10:07:02;16.40;99.90
69895;DHT22;57172;52.034;5.090;2023-05-10T10:09:29;16.60;99.90
69895;DHT22;57172;52.034;5.090;2023-05-10T10:11:56;16.60;99.90
69895;DHT22;57172;52.034;5.090;2023-05-10T10:14:23;16.70;99.90
69895;DHT22;57172;52.034;5.090;2023-05-10T10:16:51;16.80;99.90
69895;DHT22;57172;52.034;5.090;2023-05-10T10:19:36;16.90;99.90
69895;DHT22;57172;52.034;5.090;2023-05-10T10:22:04;16.90;99.60
69895;DHT22;57172;52.034;5.090;2023-05-10T10:24:31;16.80;97.90
69895;DHT22;57172;52.034;5.090;2023-05-10T10:27:41;16.70;98.10
69895;DHT22;57172;52.034;5.090;2023-05-10T10:30:30;16.60;98.60
69895;DHT22;57172;52.034;5.090;2023-05-10T10:35:54;16.70;99.90
69895;DHT22;57172;52.034;5.090;2023-05-10T10:38:22;16.80;99.90
69895;DHT22;57172;52.034;5.090;2023-05-10T10:41:09;16.80;99.90
69895;DHT22;57172;52.034;5.090;2023-05-10T10:43:36;17.00;99.90
69895;DHT22;57172;52.034;5.090;2023-05-10T10:48:41;17.60;99.90
69895;DHT22;57172;52.034;5.090;2023-05-10T10:51:13;17.90;99.90
69895;DHT22;57172;52.034;5.090;2023-05-10T10:53:41;18.30;99.90
69895;DHT22;57172;52.034;5.090;2023-05-10T10:56:12;18.60;99.90
69895;DHT22;57172;52.034;5.090;2023-05-10T10:58:49;19.00;99.90
69895;DHT22;57172;52.034;5.090;2023-05-10T11:01:20;19.10;99.90
69895;DHT22;57172;52.034;5.090;2023-05-10T11:06:36;20.40;99.90
69895;DHT22;57172;52.034;5.090;2023-05-10T11:09:11;21.10;99.90
69895;DHT22;57172;52.034;5.090;2023-05-10T11:11:53;21.70;99.90
69895;DHT22;57172;52.034;5.090;2023-05-10T11:14:22;22.20;99.90
69895;DHT22;57172;52.034;5.090;2023-05-10T11:16:49;22.20;93.90
69895;DHT22;57172;52.034;5.090;2023-05-10T11:19:17;21.90;91.80
69895;DHT22;57172;52.034;5.090;2023-05-10T11:24:39;21.10;90.50
69895;DHT22;57172;52.034;5.090;2023-05-10T11:27:06;21.00;92.60
69895;DHT22;57172;52.034;5.090;2023-05-10T11:29:34;20.80;92.90
69895;DHT22;57172;52.034;5.090;2023-05-10T11:32:01;20.60;90.00
69895;DHT22;57172;52.034;5.090;2023-05-10T11:34:30;20.20;90.30
69895;DHT22;57172;52.034;5.090;2023-05-10T11:37:02;19.70;87.40
69895;DHT22;57172;52.034;5.090;2023-05-10T11:39:30;19.20;86.30
69895;DHT22;57172;52.034;5.090;2023-05-10T11:41:58;18.60;88.10
69895;DHT22;57172;52.034;5.090;2023-05-10T11:44:31;18.20;89.30
69895;DHT22;57172;52.034;5.090;2023-05-10T11:47:00;18.00;90.90
69895;DHT22;57172;52.034;5.090;2023-05-10T11:49:27;17.80;90.80
69895;DHT22;57172;52.034;5.090;2023-05-10T11:52:07;17.60;92.40
69895;DHT22;57172;52.034;5.090;2023-05-10T11:54:34;17.50;93.50
69895;DHT22;57172;52.034;5.090;2023-05-10T11:57:01;17.50;94.40
69895;DHT22;57172;52.034;5.090;2023-05-10T11:59:28;17.60;96.00
69895;DHT22;57172;52.034;5.090;2023-05-10T12:01:55;17.80;95.10
69895;DHT22;57172;52.034;5.090;2023-05-10T12:04:22;18.10;99.30
69895;DHT22;57172;52.034;5.090;2023-05-10T12:06:49;18.70;99.90
69895;DHT22;57172;52.034;5.090;2023-05-10T12:09:17;19.10;97.50
69895;DHT22;57172;52.034;5.090;2023-05-10T12:11:57;19.20;96.60
69895;DHT22;57172;52.034;5.090;2023-05-10T12:14:24;19.10;92.50
69895;DHT22;57172;52.034;5.090;2023-05-10T12:16:51;19.00;92.40
69895;DHT22;57172;52.034;5.090;2023-05-10T12:19:19;18.90;92.30
69895;DHT22;57172;52.034;5.090;2023-05-10T12:21:47;18.70;92.80
69895;DHT22;57172;52.034;5.090;2023-05-10T12:24:13;18.60;89.50
69895;DHT22;57172;52.034;5.090;2023-05-10T12:26:45;18.20;88.50
69895;DHT22;57172;52.034;5.090;2023-05-10T12:29:22;17.90;88.80
69895;DHT22;57172;52.034;5.090;2023-05-10T12:32:01;17.60;88.70
69895;DHT22;57172;52.034;5.090;2023-05-10T12:34:33;17.30;89.60
69895;DHT22;57172;52.034;5.090;2023-05-10T12:37:02;17.00;91.50
69895;DHT22;57172;52.034;5.090;2023-05-10T12:39:43;17.00;94.00
69895;DHT22;57172;52.034;5.090;2023-05-10T12:42:10;17.10;94.80
69895;DHT22;57172;52.034;5.090;2023-05-10T12:44:38;17.00;94.40
69895;DHT22;57172;52.034;5.090;2023-05-10T12:47:05;17.00;95.70
69895;DHT22;57172;52.034;5.090;2023-05-10T12:49:32;17.10;96.70
69895;DHT22;57172;52.034;5.090;2023-05-10T12:51:59;17.40;98.90
69895;DHT22;57172;52.034;5.090;2023-05-10T12:54:26;17.80;99.90
69895;DHT22;57172;52.034;5.090;2023-05-10T12:56:54;18.10;98.60
69895;DHT22;57172;52.034;5.090;2023-05-10T12:59:21;18.00;94.40
69895;DHT22;57172;52.034;5.090;2023-05-10T13:01:49;18.00;95.30
69895;DHT22;57172;52.034;5.090;2023-05-10T13:04:16;18.00;94.60
69895;DHT22;57172;52.034;5.090;2023-05-10T13:06:43;18.00;95.10
69895;DHT22;57172;52.034;5.090;2023-05-10T13:09:09;18.00;94.30
69895;DHT22;57172;52.034;5.090;2023-05-10T13:11:37;17.80;92.20
69895;DHT22;57172;52.034;5.090;2023-05-10T13:14:03;17.60;92.70
69895;DHT22;57172;52.034;5.090;2023-05-10T13:16:31;17.40;93.30
69895;DHT22;57172;52.034;5.090;2023-05-10T13:18:58;17.40;94.50
69895;DHT22;57172;52.034;5.090;2023-05-10T13:21:25;17.40;95.70
69895;DHT22;57172;52.034;5.090;2023-05-10T13:23:52;17.40;94.20
69895;DHT22;57172;52.034;5.090;2023-05-10T13:26:19;17.20;93.70
69895;DHT22;57172;52.034;5.090;2023-05-10T13:28:47;17.10;94.20
69895;DHT22;57172;52.034;5.090;2023-05-10T13:31:15;17.00;95.10
69895;DHT22;57172;52.034;5.090;2023-05-10T13:33:42;17.00;96.30
69895;DHT22;57172;52.034;5.090;2023-05-10T13:36:09;17.00;97.10
69895;DHT22;57172;52.034;5.090;2023-05-10T13:38:36;17.10;97.80
69895;DHT22;57172;52.034;5.090;2023-05-10T13:41:03;17.20;98.40
69895;DHT22;57172;52.034;5.090;2023-05-10T13:43:30;17.40;99.40
69895;DHT22;57172;52.034;5.090;2023-05-10T13:45:56;17.60;99.90
69895;DHT22;57172;52.034;5.090;2023-05-10T13:48:23;17.70;98.20
69895;DHT22;57172;52.034;5.090;2023-05-10T13:50:50;17.70;97.80
69895;DHT22;57172;52.034;5.090;2023-05-10T13:53:17;17.70;96.70
69895;DHT22;57172;52.034;5.090;2023-05-10T13:55:45;17.70;96.50
69895;DHT22;57172;52.034;5.090;2023-05-10T13:58:11;17.70;96.90
69895;DHT22;57172;52.034;5.090;2023-05-10T14:00:39;17.70;96.30
69895;DHT22;57172;52.034;5.090;2023-05-10T14:03:07;17.80;97.50
69895;DHT22;57172;52.034;5.090;2023-05-10T14:05:38;17.90;96.80
69895;DHT22;57172;52.034;5.090;2023-05-10T14:08:05;17.90;96.40
69895;DHT22;57172;52.034;5.090;2023-05-10T14:10:31;18.00;95.70
69895;DHT22;57172;52.034;5.090;2023-05-10T14:12:58;18.00;95.80
69895;DHT22;57172;52.034;5.090;2023-05-10T14:15:25;18.00;96.00
69895;DHT22;57172;52.034;5.090;2023-05-10T14:17:52;18.00;94.90
69895;DHT22;57172;52.034;5.090;2023-05-10T14:20:19;17.90;94.30
69895;DHT22;57172;52.034;5.090;2023-05-10T14:22:46;17.70;94.20
69895;DHT22;57172;52.034;5.090;2023-05-10T14:25:14;17.70;94.90
69895;DHT22;57172;52.034;5.090;2023-05-10T14:27:41;17.60;95.10
69895;DHT22;57172;52.034;5.090;2023-05-10T14:30:08;17.60;95.70
69895;DHT22;57172;52.034;5.090;2023-05-10T14:32:35;17.50;94.80
69895;DHT22;57172;52.034;5.090;2023-05-10T14:35:03;17.50;94.60
69895;DHT22;57172;52.034;5.090;2023-05-10T14:37:31;17.40;94.90
69895;DHT22;57172;52.034;5.090;2023-05-10T14:39:59;17.40;94.60
69895;DHT22;57172;52.034;5.090;2023-05-10T14:42:25;17.40;94.40
69895;DHT22;57172;52.034;5.090;2023-05-10T14:44:52;17.30;94.50
69895;DHT22;57172;52.034;5.090;2023-05-10T14:47:19;17.20;94.90
69895;DHT22;57172;52.034;5.090;2023-05-10T14:49:46;17.20;94.90
69895;DHT22;57172;52.034;5.090;2023-05-10T14:52:12;17.10;94.90
69895;DHT22;57172;52.034;5.090;2023-05-10T14:54:40;17.10;95.80
69895;DHT22;57172;52.034;5.090;2023-05-10T14:57:07;17.10;96.20
69895;DHT22;57172;52.034;5.090;2023-05-10T14:59:34;17.10;95.60
69895;DHT22;57172;52.034;5.090;2023-05-10T15:02:01;17.10;96.40
69895;DHT22;57172;52.034;5.090;2023-05-10T15:04:30;17.20;97.40
69895;DHT22;57172;52.034;5.090;2023-05-10T15:06:58;17.30;97.60
69895;DHT22;57172;52.034;5.090;2023-05-10T15:09:28;17.30;97.70
69895;DHT22;57172;52.034;5.090;2023-05-10T15:11:56;17.50;98.80
69895;DHT22;57172;52.034;5.090;2023-05-10T15:14:24;17.60;99.00
69895;DHT22;57172;52.034;5.090;2023-05-10T15:16:51;17.80;98.90
69895;DHT22;57172;52.034;5.090;2023-05-10T15:19:18;18.00;98.60
69895;DHT22;57172;52.034;5.090;2023-05-10T15:21:45;18.10;98.50
69895;DHT22;57172;52.034;5.090;2023-05-10T15:24:11;18.20;97.60
69895;DHT22;57172;52.034;5.090;2023-05-10T15:26:39;18.10;94.90
69895;DHT22;57172;52.034;5.090;2023-05-10T15:29:07;17.90;93.30
69895;DHT22;57172;52.034;5.090;2023-05-10T15:31:33;17.70;93.50
69895;DHT22;57172;52.034;5.090;2023-05-10T15:34:02;17.70;94.90
69895;DHT22;57172;52.034;5.090;2023-05-10T15:36:29;17.70;94.60
69895;DHT22;57172;52.034;5.090;2023-05-10T15:38:56;17.60;96.50
69895;DHT22;57172;52.034;5.090;2023-05-10T15:41:23;17.80;98.10
69895;DHT22;57172;52.034;5.090;2023-05-10T15:43:51;18.00;98.10
69895;DHT22;57172;52.034;5.090;2023-05-10T15:46:18;18.20;97.90
69895;DHT22;57172;52.034;5.090;2023-05-10T15:48:44;18.30;95.50
69895;DHT22;57172;52.034;5.090;2023-05-10T15:51:11;18.20;95.10
69895;DHT22;57172;52.034;5.090;2023-05-10T15:53:38;18.30;95.50
69895;DHT22;57172;52.034;5.090;2023-05-10T15:56:23;18.30;94.80
69895;DHT22;57172;52.034;5.090;2023-05-10T15:58:49;18.40;95.30
69895;DHT22;57172;52.034;5.090;2023-05-10T16:01:17;18.60;95.90